SAA280 FAOR-YPPH
Flight info
| Callsign | SAA280 |
|---|---|
| Flight time | N/A |
| Altitude | 35000 |
| Route | EXOBI1A EXOBI DCT EGSOX DCT 31S040E/N0466F370 33S045E 35S051E DCT RAXES UT451 SUNKI/N0460F390 DCT 38S082E 38S089E 37S096E 35S102E 34S109E DCT KAGMI IPMOR2A |
| Aircraft | A343/H-SDE2E3FGHIJ4J5M1RWXY/LB1D1 |
Departure
| Time | N/A |
|---|---|
| Airport | O.R. Tambo International Airport (FAOR) |
Arrival
| Time | 2026-05-05 04:22 |
|---|---|
| Airport | Perth International Airport (YPPH) |
| Time | Latitude | Longitude | Altitude | Speed | Heading |
|---|---|---|---|---|---|
| 2026-05-05 03:43 | -32.85497 | 112.13370 | 35370 ft | 489 kts | 65° |
| 2026-05-05 03:44 | -32.82665 | 112.20760 | 35370 ft | 489 kts | 65° |
| 2026-05-05 03:44 | -32.79834 | 112.28130 | 35368 ft | 490 kts | 65° |
| 2026-05-05 03:45 | -32.77018 | 112.35445 | 35370 ft | 490 kts | 65° |
| 2026-05-05 03:45 | -32.74178 | 112.42809 | 35363 ft | 490 kts | 64° |
| 2026-05-05 03:46 | -32.71330 | 112.50175 | 35366 ft | 490 kts | 64° |
| 2026-05-05 03:46 | -32.68496 | 112.57489 | 35364 ft | 490 kts | 64° |
| 2026-05-05 03:47 | -32.66105 | 112.63649 | 35365 ft | 490 kts | 64° |
| 2026-05-05 03:47 | -32.63269 | 112.70941 | 35365 ft | 490 kts | 64° |
| 2026-05-05 03:48 | -32.60408 | 112.78282 | 35363 ft | 490 kts | 64° |
| 2026-05-05 03:48 | -32.57546 | 112.85609 | 35362 ft | 490 kts | 64° |
| 2026-05-05 03:49 | -32.54675 | 112.92942 | 35361 ft | 489 kts | 64° |
| 2026-05-05 03:49 | -32.51825 | 113.00210 | 35360 ft | 489 kts | 64° |
| 2026-05-05 03:50 | -32.48952 | 113.07517 | 35355 ft | 489 kts | 64° |
| 2026-05-05 03:50 | -32.46078 | 113.14813 | 35355 ft | 489 kts | 64° |
| 2026-05-05 03:51 | -32.43200 | 113.22104 | 35356 ft | 489 kts | 64° |
| 2026-05-05 03:51 | -32.41756 | 113.25756 | 35149 ft | 491 kts | 64° |
| 2026-05-05 03:51 | -32.40304 | 113.29424 | 34918 ft | 493 kts | 64° |
| 2026-05-05 03:52 | -32.38848 | 113.33100 | 34682 ft | 494 kts | 64° |
| 2026-05-05 03:52 | -32.37403 | 113.36742 | 34445 ft | 494 kts | 64° |
| 2026-05-05 03:52 | -32.35940 | 113.40427 | 34187 ft | 495 kts | 64° |
| 2026-05-05 03:52 | -32.34477 | 113.44109 | 33933 ft | 495 kts | 64° |
| 2026-05-05 03:53 | -32.33009 | 113.47799 | 33663 ft | 495 kts | 64° |
| 2026-05-05 03:53 | -32.31542 | 113.51482 | 33390 ft | 495 kts | 64° |
| 2026-05-05 03:53 | -32.30066 | 113.55185 | 33137 ft | 495 kts | 64° |
| 2026-05-05 03:53 | -32.28598 | 113.58862 | 32886 ft | 495 kts | 64° |
| 2026-05-05 03:54 | -32.27143 | 113.62503 | 32618 ft | 495 kts | 64° |
| 2026-05-05 03:54 | -32.25671 | 113.66183 | 32361 ft | 495 kts | 64° |
| 2026-05-05 03:54 | -32.24197 | 113.69864 | 32111 ft | 495 kts | 64° |
| 2026-05-05 03:54 | -32.22717 | 113.73559 | 31856 ft | 495 kts | 64° |
| 2026-05-05 03:55 | -32.21242 | 113.77235 | 31611 ft | 496 kts | 64° |
| 2026-05-05 03:55 | -32.19760 | 113.80923 | 31370 ft | 496 kts | 64° |
| 2026-05-05 03:55 | -32.18281 | 113.84604 | 31063 ft | 495 kts | 64° |
| 2026-05-05 03:55 | -32.16809 | 113.88260 | 30520 ft | 491 kts | 64° |
| 2026-05-05 03:56 | -32.15346 | 113.91893 | 29895 ft | 488 kts | 64° |
| 2026-05-05 03:56 | -32.13916 | 113.95437 | 29339 ft | 483 kts | 64° |
| 2026-05-05 03:56 | -32.12480 | 113.98996 | 28786 ft | 478 kts | 64° |
| 2026-05-05 03:56 | -32.11052 | 114.02530 | 28234 ft | 473 kts | 63° |
| 2026-05-05 03:57 | -32.09638 | 114.06025 | 27694 ft | 469 kts | 63° |
| 2026-05-05 03:57 | -32.08232 | 114.09497 | 27141 ft | 465 kts | 63° |
| 2026-05-05 03:57 | -32.06845 | 114.12921 | 26603 ft | 461 kts | 63° |
| 2026-05-05 03:57 | -32.05485 | 114.16272 | 26078 ft | 457 kts | 63° |
| 2026-05-05 03:58 | -32.04119 | 114.19638 | 25535 ft | 453 kts | 63° |
| 2026-05-05 03:58 | -32.02761 | 114.22977 | 25000 ft | 450 kts | 63° |
| 2026-05-05 03:58 | -32.01414 | 114.26288 | 24447 ft | 447 kts | 63° |
| 2026-05-05 03:58 | -32.00072 | 114.29582 | 23916 ft | 443 kts | 63° |
| 2026-05-05 03:59 | -31.98740 | 114.32850 | 23311 ft | 440 kts | 63° |
| 2026-05-05 03:59 | -31.97426 | 114.36071 | 22770 ft | 435 kts | 63° |
| 2026-05-05 03:59 | -31.96119 | 114.39271 | 22243 ft | 430 kts | 63° |
| 2026-05-05 03:59 | -31.94829 | 114.42429 | 21709 ft | 426 kts | 63° |
| 2026-05-05 04:00 | -31.93548 | 114.45558 | 21191 ft | 421 kts | 63° |
| 2026-05-05 04:00 | -31.92281 | 114.48652 | 20671 ft | 418 kts | 63° |
| 2026-05-05 04:00 | -31.91028 | 114.51711 | 20160 ft | 414 kts | 63° |
| 2026-05-05 04:00 | -31.89794 | 114.54717 | 19655 ft | 411 kts | 63° |
| 2026-05-05 04:01 | -31.88554 | 114.57739 | 19150 ft | 408 kts | 64° |
| 2026-05-05 04:01 | -31.87324 | 114.60733 | 18632 ft | 405 kts | 64° |
| 2026-05-05 04:01 | -31.86097 | 114.63716 | 18082 ft | 401 kts | 64° |
| 2026-05-05 04:01 | -31.84888 | 114.66653 | 17580 ft | 397 kts | 64° |
| 2026-05-05 04:02 | -31.83690 | 114.69563 | 17077 ft | 392 kts | 64° |
| 2026-05-05 04:02 | -31.82507 | 114.72433 | 16600 ft | 388 kts | 65° |
| 2026-05-05 04:02 | -31.81332 | 114.75281 | 16103 ft | 384 kts | 65° |
| 2026-05-05 04:02 | -31.80174 | 114.78084 | 15623 ft | 380 kts | 65° |
| 2026-05-05 04:03 | -31.79038 | 114.80836 | 15146 ft | 376 kts | 65° |
| 2026-05-05 04:03 | -31.77896 | 114.83599 | 14661 ft | 373 kts | 65° |
| 2026-05-05 04:03 | -31.76765 | 114.86332 | 14180 ft | 370 kts | 65° |
| 2026-05-05 04:03 | -31.75718 | 114.89075 | 13706 ft | 365 kts | 72° |
| 2026-05-05 04:04 | -31.75272 | 114.91970 | 13278 ft | 357 kts | 90° |
| 2026-05-05 04:04 | -31.75553 | 114.94872 | 12574 ft | 359 kts | 101° |
| 2026-05-05 04:04 | -31.76055 | 114.97707 | 12049 ft | 358 kts | 102° |
| 2026-05-05 04:04 | -31.76565 | 115.00554 | 11579 ft | 354 kts | 102° |
| 2026-05-05 04:05 | -31.77061 | 115.03376 | 11111 ft | 351 kts | 102° |
| 2026-05-05 04:05 | -31.77545 | 115.06172 | 10703 ft | 346 kts | 102° |
| 2026-05-05 04:05 | -31.78013 | 115.08894 | 10569 ft | 333 kts | 102° |
| 2026-05-05 04:05 | -31.78460 | 115.11513 | 10448 ft | 321 kts | 102° |
| 2026-05-05 04:06 | -31.78892 | 115.14044 | 10326 ft | 310 kts | 102° |
| 2026-05-05 04:06 | -31.79308 | 115.16490 | 10193 ft | 300 kts | 102° |
| 2026-05-05 04:06 | -31.79708 | 115.18851 | 10067 ft | 291 kts | 102° |
| 2026-05-05 04:06 | -31.80097 | 115.21153 | 9897 ft | 283 kts | 102° |
| 2026-05-05 04:07 | -31.80478 | 115.23410 | 9609 ft | 280 kts | 102° |
| 2026-05-05 04:07 | -31.80857 | 115.25655 | 9288 ft | 279 kts | 101° |
| 2026-05-05 04:07 | -31.81235 | 115.27881 | 9011 ft | 276 kts | 102° |
| 2026-05-05 04:07 | -31.81710 | 115.30069 | 8651 ft | 277 kts | 106° |
| 2026-05-05 04:08 | -31.82244 | 115.32236 | 8339 ft | 275 kts | 106° |
| 2026-05-05 04:08 | -31.82766 | 115.34376 | 8008 ft | 275 kts | 106° |
| 2026-05-05 04:08 | -31.83282 | 115.36536 | 7727 ft | 273 kts | 105° |
| 2026-05-05 04:08 | -31.83790 | 115.38683 | 7424 ft | 272 kts | 105° |
| 2026-05-05 04:09 | -31.84291 | 115.40817 | 7137 ft | 270 kts | 105° |
| 2026-05-05 04:09 | -31.84789 | 115.42949 | 6838 ft | 270 kts | 105° |
| 2026-05-05 04:09 | -31.85284 | 115.45069 | 6545 ft | 268 kts | 105° |
| 2026-05-05 04:09 | -31.85776 | 115.47187 | 6236 ft | 268 kts | 105° |
| 2026-05-05 04:10 | -31.86266 | 115.49298 | 5984 ft | 265 kts | 105° |
| 2026-05-05 04:10 | -31.86805 | 115.51356 | 5869 ft | 263 kts | 112° |
| 2026-05-05 04:10 | -31.87823 | 115.53144 | 5745 ft | 266 kts | 136° |
| 2026-05-05 04:10 | -31.89329 | 115.54343 | 5620 ft | 265 kts | 150° |
| 2026-05-05 04:11 | -31.90958 | 115.55374 | 5502 ft | 266 kts | 151° |
| 2026-05-05 04:11 | -31.92595 | 115.56402 | 5380 ft | 267 kts | 151° |
| 2026-05-05 04:11 | -31.94239 | 115.57443 | 5256 ft | 266 kts | 150° |
| 2026-05-05 04:11 | -31.95859 | 115.58478 | 5131 ft | 265 kts | 150° |
| 2026-05-05 04:12 | -31.97457 | 115.59502 | 4998 ft | 264 kts | 150° |
| 2026-05-05 04:12 | -31.99070 | 115.60537 | 4878 ft | 264 kts | 150° |
| 2026-05-05 04:12 | -32.00681 | 115.61573 | 4744 ft | 264 kts | 150° |
| 2026-05-05 04:12 | -32.02293 | 115.62610 | 4613 ft | 264 kts | 150° |
| 2026-05-05 04:13 | -32.03912 | 115.63653 | 4487 ft | 265 kts | 150° |
| 2026-05-05 04:13 | -32.05523 | 115.64691 | 4354 ft | 264 kts | 150° |
| 2026-05-05 04:13 | -32.07136 | 115.65731 | 4231 ft | 263 kts | 150° |
| 2026-05-05 04:13 | -32.08740 | 115.66766 | 4105 ft | 261 kts | 150° |
| 2026-05-05 04:14 | -32.10303 | 115.67774 | 3972 ft | 252 kts | 151° |
| 2026-05-05 04:14 | -32.11817 | 115.68751 | 3838 ft | 243 kts | 150° |
| 2026-05-05 04:14 | -32.13199 | 115.69856 | 3708 ft | 240 kts | 135° |
| 2026-05-05 04:14 | -32.14127 | 115.71444 | 3575 ft | 238 kts | 110° |
| 2026-05-05 04:15 | -32.14537 | 115.73333 | 3465 ft | 238 kts | 99° |
| 2026-05-05 04:15 | -32.14821 | 115.75269 | 3335 ft | 239 kts | 98° |
| 2026-05-05 04:15 | -32.15100 | 115.77202 | 3215 ft | 239 kts | 99° |
| 2026-05-05 04:15 | -32.15386 | 115.79125 | 3071 ft | 237 kts | 98° |
| 2026-05-05 04:16 | -32.15674 | 115.81050 | 3001 ft | 238 kts | 98° |
| 2026-05-05 04:16 | -32.15961 | 115.82969 | 2992 ft | 237 kts | 99° |
| 2026-05-05 04:16 | -32.16249 | 115.84840 | 2992 ft | 226 kts | 99° |
| 2026-05-05 04:16 | -32.16509 | 115.86605 | 2982 ft | 215 kts | 97° |
| 2026-05-05 04:17 | -32.16473 | 115.88305 | 2978 ft | 201 kts | 72° |
| 2026-05-05 04:17 | -32.15719 | 115.89564 | 3009 ft | 184 kts | 41° |
| 2026-05-05 04:17 | -32.14634 | 115.90366 | 3010 ft | 186 kts | 22° |
| 2026-05-05 04:17 | -32.13395 | 115.90805 | 2956 ft | 185 kts | 14° |
| 2026-05-05 04:18 | -32.12139 | 115.91187 | 2992 ft | 186 kts | 15° |
| 2026-05-05 04:18 | -32.10879 | 115.91563 | 2994 ft | 187 kts | 14° |
| 2026-05-05 04:18 | -32.09616 | 115.91938 | 2858 ft | 187 kts | 15° |
| 2026-05-05 04:18 | -32.08361 | 115.92312 | 2594 ft | 184 kts | 14° |
| 2026-05-05 04:19 | -32.07150 | 115.92668 | 2347 ft | 179 kts | 14° |
| 2026-05-05 04:19 | -32.05970 | 115.93012 | 2102 ft | 169 kts | 14° |
| 2026-05-05 04:19 | -32.04870 | 115.93334 | 1880 ft | 154 kts | 15° |
| 2026-05-05 04:19 | -32.03871 | 115.93626 | 1683 ft | 143 kts | 15° |
| 2026-05-05 04:20 | -32.02938 | 115.93899 | 1475 ft | 134 kts | 15° |
| 2026-05-05 04:20 | -32.02040 | 115.94161 | 1297 ft | 134 kts | 16° |
| 2026-05-05 04:20 | -32.01133 | 115.94428 | 1117 ft | 135 kts | 17° |
| 2026-05-05 04:20 | -32.00228 | 115.94699 | 922 ft | 134 kts | 17° |
| 2026-05-05 04:21 | -31.99321 | 115.94976 | 775 ft | 135 kts | 15° |
| 2026-05-05 04:21 | -31.98400 | 115.95244 | 607 ft | 136 kts | 15° |
| 2026-05-05 04:21 | -31.97485 | 115.95503 | 445 ft | 137 kts | 14° |
| 2026-05-05 04:21 | -31.96578 | 115.95764 | 253 ft | 133 kts | 16° |
| 2026-05-05 04:22 | -31.95679 | 115.96024 | 98 ft | 132 kts | 16° |
| 2026-05-05 04:22 | -31.94876 | 115.96261 | 66 ft | 96 kts | 13° |
| 2026-05-05 04:22 | -31.94404 | 115.96397 | 64 ft | 44 kts | 13° |
| 2026-05-05 04:22 | -31.94280 | 115.96433 | 68 ft | 1 kts | 14° |
| 2026-05-05 04:23 | -31.94256 | 115.96441 | 68 ft | 7 kts | 14° |
| 2026-05-05 04:23 | -31.94199 | 115.96458 | 66 ft | 10 kts | 15° |
| 2026-05-05 04:23 | -31.94141 | 115.96501 | 67 ft | 10 kts | 53° |
| 2026-05-05 04:23 | -31.94102 | 115.96573 | 63 ft | 11 kts | 58° |
| 2026-05-05 04:24 | -31.94075 | 115.96626 | 64 ft | 0 kts | 58° |
| 2026-05-05 04:24 | -31.94073 | 115.96629 | 65 ft | 1 kts | 58° |
| 2026-05-05 04:24 | -31.94065 | 115.96644 | 65 ft | 3 kts | 58° |
| 2026-05-05 04:25 | -31.94031 | 115.96712 | 65 ft | 7 kts | 59° |
| 2026-05-05 04:25 | -31.94003 | 115.96766 | 68 ft | 8 kts | 58° |
| 2026-05-05 04:25 | -31.93970 | 115.96830 | 62 ft | 9 kts | 58° |
| 2026-05-05 04:25 | -31.93942 | 115.96880 | 65 ft | 8 kts | 52° |
| 2026-05-05 04:26 | -31.93917 | 115.96937 | 65 ft | 8 kts | 85° |
| 2026-05-05 04:26 | -31.93928 | 115.97008 | 67 ft | 10 kts | 103° |
| 2026-05-05 04:26 | -31.93945 | 115.97092 | 62 ft | 11 kts | 104° |
| 2026-05-05 04:26 | -31.93961 | 115.97166 | 63 ft | 7 kts | 104° |
| 2026-05-05 04:27 | -31.93962 | 115.97224 | 65 ft | 8 kts | 76° |
| 2026-05-05 04:27 | -31.93934 | 115.97283 | 68 ft | 9 kts | 59° |
| 2026-05-05 04:27 | -31.93913 | 115.97348 | 63 ft | 4 kts | 82° |
| 2026-05-05 04:27 | -31.93913 | 115.97388 | 65 ft | 6 kts | 90° |
| 2026-05-05 04:28 | -31.93926 | 115.97426 | 64 ft | 4 kts | 136° |
| 2026-05-05 04:28 | -31.93958 | 115.97437 | 65 ft | 6 kts | 168° |
| 2026-05-05 04:28 | -31.93982 | 115.97442 | 67 ft | 2 kts | 171° |
| 2026-05-05 04:28 | -31.93987 | 115.97443 | 63 ft | 0 kts | 171° |